Capitol Logistics 227


PHNL
Daniel K Inouye International Airport
Honolulu, Hawaii, US
KLAX
Los Angeles International Airport
Los Angeles, California, US

Activity Log

Date Flight Route Aircraft Duration
08/28/2020 CPX117 MKK4 CLUTS R465 CIVIT R585 AUDIA SNAXX RYDRR2 B77L 5h 33m
05/02/2020 CPX227 MKK4 CLUTS R465 CIVIT R585 AUDIA SNAXX RYDRR2 B763 5h 13m
04/22/2020 CPX227 MKK4 EBBER R577 EDTOO DINTY MOOR4 B763 5h 33m
04/11/2020 CPX117 MKK4 CLUTS R465 CIVIT R585 AUDIA SNAXX RYDRR2 B744 5h 12m
04/04/2020 CPX117 MKK4 CLUTS R465 CIVIT R585 AUDIA SNAXX RYDRR2 B744 4h 53m
06/30/2019 CPX227 MKK4 CLUTS R465 CIVIT R585 AUDIA SNAXX RYDRR2 B763 5h 24m
01/19/2019 CPX227 MKK4 CLUTS R465 CIVIT R585 AUDIA SNAXX RYDRR2 B763 4h 50m
01/08/2019 CPX117 MKK4 EBBER R577 ELKEY RYDRR2 MD11 4h 41m
12/04/2018 CPX127 EBBER R577 ELKEY B763 5h 17m

Route Details

Aircraft Information
Primary: Boeing 767-300BDSF
Backup: Not Available
Route Data
Distance: 2267nm
Sched. Duration: 5h 40m
Avg. Duration: 4h 97m (-42m)
Times Flown: 9
Recm'd Route: MKK4 CLUTS R465 CIVIT R585 AUDIA SNAXX RYDRR2
Planned Altitude: 35,000ft
Origin Wx: PHNL 271753Z 33004KT 10SM FEW040 SCT070 BKN150 24/22 A2995 RMK AO2 SLP141 T02390217 10239 20233 53013
Dest. Wx: KLAX 271753Z 13003KT 7SM R25L/0500VP6000FT FEW050 FEW140 21/M13 A3005 RMK AO2 SLP176 FU FEW050 FU FEW140 T02111128 10211 20122 50005 $
Notes:

Financial History
Total Freight: 1,300,278lbs
Average Load: 144,475lbs/flt
Fuel Used: 657,052lbs
Avg. Fuel Used: 73,006lbs/flt
Fuel Expense: $463,250
Avg. Fuel Expense: $51,472
Avg. Fuel Cost: $0.71/lbs
Total Gross Income: $1,730,096
Pilot Pay: $1,521
Total Expenses: $187,318
Total Revenue: $1,071,496
Average Revenue: $192,232.87